createdAt,value
2018-02-09T00:00:21.571Z,41.97
2018-02-09T00:01:27.575Z,41.05
2018-02-09T00:02:33.883Z,43.63
2018-02-09T00:03:39.756Z,41.97
2018-02-09T00:04:47.126Z,43.10
2018-02-09T00:05:53.180Z,43.40
2018-02-09T00:06:59.445Z,42.92
2018-02-09T00:08:05.347Z,40.00
2018-02-09T00:09:11.563Z,40.05
2018-02-09T00:10:17.779Z,43.00
2018-02-09T00:11:23.610Z,42.35
2018-02-09T00:12:29.777Z,43.30
2018-02-09T00:13:35.994Z,42.15
2018-02-09T00:14:42.147Z,41.47
2018-02-09T00:15:48.323Z,43.40
2018-02-09T00:16:54.476Z,42.05
2018-02-09T00:18:00.686Z,41.67
2018-02-09T00:19:06.938Z,41.67
2018-02-09T00:20:13.237Z,42.53
2018-02-09T00:21:19.443Z,41.83
2018-02-09T00:22:36.677Z,41.70
2018-02-09T00:23:42.577Z,42.75
2018-02-09T00:24:48.785Z,39.40
2018-02-09T00:25:54.932Z,42.90
2018-02-09T00:27:01.119Z,40.80
2018-02-09T00:28:07.346Z,40.85
2018-02-09T00:29:13.538Z,43.60
2018-02-09T00:30:19.686Z,42.33
2018-02-09T00:31:25.908Z,42.92
2018-02-09T00:32:36.420Z,40.70
2018-02-09T00:33:42.583Z,42.92
2018-02-09T00:34:48.713Z,42.80
2018-02-09T00:35:54.878Z,43.28
2018-02-09T00:37:01.063Z,40.88
2018-02-09T00:38:07.224Z,42.08
2018-02-09T00:39:13.425Z,42.17
2018-02-09T00:40:19.287Z,40.47
2018-02-09T00:41:25.454Z,43.55
2018-02-09T00:42:31.670Z,42.45
2018-02-09T00:43:38.004Z,41.92
2018-02-09T00:44:44.200Z,43.50
2018-02-09T00:45:50.174Z,41.75
2018-02-09T00:46:56.358Z,44.00
2018-02-09T00:48:02.602Z,42.03
2018-02-09T00:49:08.764Z,41.83
2018-02-09T00:50:14.964Z,44.38
2018-02-09T00:51:21.124Z,42.10
2018-02-09T00:52:27.343Z,44.75
2018-02-09T00:53:33.182Z,44.42
2018-02-09T00:54:39.396Z,40.65
2018-02-09T00:55:45.594Z,43.58
2018-02-09T00:56:51.761Z,41.67
2018-02-09T00:57:57.989Z,43.25
2018-02-09T00:59:03.792Z,45.65
2018-02-09T01:00:09.292Z,43.08
2018-02-09T01:01:15.454Z,44.53
2018-02-09T01:02:21.681Z,42.13
2018-02-09T01:03:27.942Z,42.83
2018-02-09T01:04:34.147Z,46.67
2018-02-09T01:05:40.336Z,45.50
2018-02-09T01:06:46.524Z,44.40
2018-02-09T01:07:52.807Z,42.92
2018-02-09T01:08:59.047Z,44.25
2018-02-09T01:10:04.894Z,43.67
2018-02-09T01:11:11.111Z,43.90
2018-02-09T01:12:31.840Z,43.70
2018-02-09T01:13:38.068Z,42.95
2018-02-09T01:14:44.529Z,43.85
2018-02-09T01:15:50.753Z,46.70
2018-02-09T01:16:58.888Z,45.47
2018-02-09T01:18:04.473Z,45.67
2018-02-09T01:19:10.728Z,43.13
2018-02-09T01:20:17.772Z,41.95
2018-02-09T01:21:23.993Z,44.13
2018-02-09T01:22:30.204Z,46.33
2018-02-09T01:23:36.349Z,46.13
2018-02-09T01:24:42.569Z,42.85
2018-02-09T01:25:48.768Z,44.53
2018-02-09T01:26:54.978Z,44.47
2018-02-09T01:28:01.281Z,43.33
2018-02-09T01:29:07.445Z,42.60
2018-02-09T01:30:13.732Z,46.13
2018-02-09T01:31:19.888Z,41.70
2018-02-09T01:32:26.034Z,44.10
2018-02-09T01:33:32.157Z,45.63
2018-02-09T01:34:39.025Z,43.92
2018-02-09T01:35:45.213Z,44.22
2018-02-09T01:36:51.444Z,44.83
2018-02-09T01:37:57.576Z,42.95
2018-02-09T01:39:03.625Z,45.72
2018-02-09T01:40:09.498Z,43.67
2018-02-09T01:41:15.686Z,44.92
2018-02-09T01:42:21.929Z,44.47
2018-02-09T01:43:28.128Z,41.10
2018-02-09T01:44:34.335Z,43.20
2018-02-09T01:45:40.508Z,43.03
2018-02-09T01:46:46.688Z,44.35
2018-02-09T01:47:52.923Z,42.55
2018-02-09T01:48:59.071Z,46.25
2018-02-09T01:50:16.208Z,44.92
2018-02-09T01:51:22.452Z,43.00
2018-02-09T01:52:28.585Z,43.55
2018-02-09T01:53:34.734Z,43.45
2018-02-09T01:54:41.053Z,45.08
2018-02-09T01:55:47.267Z,46.15
2018-02-09T01:56:53.433Z,43.08
2018-02-09T01:57:59.635Z,42.03
2018-02-09T01:59:05.783Z,47.25
2018-02-09T02:00:11.971Z,44.33
2018-02-09T02:01:17.914Z,43.97
2018-02-09T02:02:24.202Z,45.95
2018-02-09T02:03:30.392Z,43.20
2018-02-09T02:04:36.529Z,44.95
2018-02-09T02:05:42.733Z,44.90
2018-02-09T02:06:48.895Z,45.28
2018-02-09T02:07:55.751Z,43.60
2018-02-09T02:09:01.925Z,45.50
2018-02-09T02:10:07.986Z,46.37
2018-02-09T02:11:14.446Z,45.58
2018-02-09T02:12:21.474Z,46.28
2018-02-09T02:13:27.963Z,45.72
2018-02-09T02:14:34.121Z,44.88
2018-02-09T02:15:40.852Z,48.03
2018-02-09T02:16:47.418Z,45.72
2018-02-09T02:17:53.698Z,49.10
2018-02-09T02:19:00.215Z,48.58
2018-02-09T02:20:06.379Z,47.70
2018-02-09T02:21:12.540Z,48.05
2018-02-09T02:22:18.800Z,48.05
2018-02-09T02:23:24.992Z,44.53
2018-02-09T02:24:31.210Z,45.12
2018-02-09T02:25:38.050Z,50.03
2018-02-09T02:26:44.637Z,46.35
2018-02-09T02:27:50.820Z,48.25
2018-02-09T02:28:57.685Z,46.40
2018-02-09T02:30:03.259Z,46.37
2018-02-09T02:31:10.195Z,46.05
2018-02-09T02:32:16.845Z,48.97
2018-02-09T02:33:23.335Z,47.10
2018-02-09T02:34:30.170Z,47.20
2018-02-09T02:35:36.375Z,48.10
2018-02-09T02:36:42.798Z,47.20
2018-02-09T02:37:49.479Z,48.47
2018-02-09T02:38:56.240Z,49.30
2018-02-09T02:40:02.927Z,46.72
2018-02-09T02:41:09.114Z,46.22
2018-02-09T02:42:15.687Z,46.75
2018-02-09T02:43:21.955Z,50.00
2018-02-09T02:44:28.205Z,50.17
2018-02-09T02:45:34.983Z,45.83
2018-02-09T02:46:40.989Z,49.22
2018-02-09T02:47:47.615Z,47.50
2018-02-09T02:48:53.962Z,47.67
2018-02-09T02:50:00.121Z,48.15
2018-02-09T02:51:06.767Z,50.12
2018-02-09T02:52:12.955Z,48.22
2018-02-09T02:53:19.807Z,49.33
2018-02-09T02:54:26.138Z,48.20
2018-02-09T02:55:32.513Z,48.78
2018-02-09T02:56:38.857Z,47.53
2018-02-09T02:57:45.081Z,48.87
2018-02-09T02:58:51.708Z,47.85
2018-02-09T02:59:58.322Z,48.35
2018-02-09T03:01:04.096Z,48.97
2018-02-09T03:02:10.501Z,48.20
2018-02-09T03:03:16.752Z,48.75
2018-02-09T03:04:23.224Z,47.80
2018-02-09T03:05:29.804Z,49.67
2018-02-09T03:06:35.999Z,48.78
2018-02-09T03:07:42.164Z,49.97
2018-02-09T03:08:48.343Z,51.28
2018-02-09T03:09:54.534Z,49.17
2018-02-09T03:11:01.217Z,48.47
2018-02-09T03:12:07.882Z,50.80
2018-02-09T03:13:14.617Z,49.42
2018-02-09T03:14:20.969Z,49.15
2018-02-09T03:15:27.276Z,48.05
2018-02-09T03:16:38.775Z,50.03
2018-02-09T03:17:45.280Z,48.95
2018-02-09T03:18:51.668Z,49.05
2018-02-09T03:19:58.325Z,50.17
2018-02-09T03:21:05.694Z,49.45
2018-02-09T03:22:12.213Z,49.65
2018-02-09T03:23:18.530Z,48.10
2018-02-09T03:24:26.404Z,50.12
2018-02-09T03:25:32.580Z,50.17
2018-02-09T03:26:38.960Z,47.85
2018-02-09T03:27:45.675Z,50.05
2018-02-09T03:28:52.379Z,51.70
2018-02-09T03:29:58.661Z,48.13
2018-02-09T03:31:05.432Z,47.95
2018-02-09T03:32:11.701Z,47.40
2018-02-09T03:33:18.749Z,48.50
2018-02-09T03:34:25.070Z,51.08
2018-02-09T03:35:31.679Z,48.28
2018-02-09T03:36:37.835Z,50.83
2018-02-09T03:37:44.541Z,51.35
2018-02-09T03:38:50.732Z,48.60
2018-02-09T03:39:56.891Z,50.78
2018-02-09T03:41:03.193Z,49.42
2018-02-09T03:42:09.323Z,49.67
2018-02-09T03:43:15.573Z,51.50
2018-02-09T03:44:21.766Z,49.28
2018-02-09T03:45:27.715Z,49.78
2018-02-09T03:46:33.919Z,47.00
2018-02-09T03:47:40.094Z,49.92
2018-02-09T03:48:46.308Z,47.03
2018-02-09T03:49:52.468Z,49.63
2018-02-09T03:50:58.694Z,49.53
2018-02-09T03:52:04.891Z,48.53
2018-02-09T03:53:11.049Z,48.40
2018-02-09T03:54:21.257Z,46.37
2018-02-09T03:55:27.452Z,48.15
2018-02-09T03:56:33.674Z,48.25
2018-02-09T03:57:44.873Z,46.67
2018-02-09T03:58:51.100Z,48.65
2018-02-09T03:59:57.293Z,47.35
2018-02-09T04:01:03.456Z,49.03
2018-02-09T04:02:09.609Z,47.78
2018-02-09T04:03:15.820Z,47.20
2018-02-09T04:04:22.079Z,48.15
2018-02-09T04:05:28.267Z,46.40
2018-02-09T04:06:34.509Z,48.15
2018-02-09T04:07:40.638Z,48.97
2018-02-09T04:08:46.794Z,46.58
2018-02-09T04:09:53.044Z,49.92
2018-02-09T04:10:59.310Z,48.70
2018-02-09T04:12:05.492Z,48.90
2018-02-09T04:13:11.666Z,48.80
2018-02-09T04:14:17.816Z,49.05
2018-02-09T04:15:23.864Z,48.22
2018-02-09T04:16:30.043Z,48.30
2018-02-09T04:17:36.188Z,48.25
2018-02-09T04:18:42.397Z,46.10
2018-02-09T04:19:48.614Z,48.53
2018-02-09T04:20:54.568Z,50.22
2018-02-09T04:22:00.755Z,49.15
2018-02-09T04:23:07.174Z,45.80
2018-02-09T04:24:13.360Z,50.33
2018-02-09T04:25:19.546Z,46.55
2018-02-09T04:26:25.771Z,46.70
2018-02-09T04:27:31.947Z,49.25
2018-02-09T04:28:38.074Z,47.47
2018-02-09T04:29:44.293Z,46.58
2018-02-09T04:30:50.492Z,47.30
2018-02-09T04:31:56.766Z,47.85
2018-02-09T04:33:03.139Z,47.55
2018-02-09T04:34:09.467Z,49.90
2018-02-09T04:35:15.610Z,48.87
2018-02-09T04:36:22.766Z,50.22
2018-02-09T04:37:28.949Z,46.60
2018-02-09T04:38:35.297Z,49.08
2018-02-09T04:39:41.528Z,48.13
2018-02-09T04:40:47.736Z,48.72
2018-02-09T04:41:55.169Z,48.58
2018-02-09T04:43:01.303Z,46.20
2018-02-09T04:44:08.444Z,46.50
2018-02-09T04:45:14.938Z,46.42
2018-02-09T04:46:21.125Z,47.45
2018-02-09T04:47:27.279Z,47.95
2018-02-09T04:48:33.517Z,46.00
2018-02-09T04:49:39.788Z,46.90
2018-02-09T04:50:45.928Z,45.70
2018-02-09T04:51:52.092Z,48.03
2018-02-09T04:52:58.320Z,47.15
2018-02-09T04:54:04.448Z,48.17
2018-02-09T04:55:10.442Z,47.47
2018-02-09T04:56:16.633Z,48.83
2018-02-09T04:57:22.890Z,46.20
2018-02-09T04:58:29.141Z,49.70
2018-02-09T04:59:35.329Z,47.30
2018-02-09T05:00:41.677Z,48.08
2018-02-09T05:01:47.941Z,47.42
2018-02-09T05:02:54.212Z,47.85
2018-02-09T05:04:00.404Z,49.15
2018-02-09T05:05:06.540Z,48.35
2018-02-09T05:06:12.701Z,47.75
2018-02-09T05:07:18.909Z,45.47
2018-02-09T05:08:25.198Z,48.50
2018-02-09T05:09:31.437Z,49.15
2018-02-09T05:10:37.602Z,47.88
2018-02-09T05:11:43.844Z,48.28
2018-02-09T05:12:50.091Z,47.00
2018-02-09T05:13:56.314Z,47.08
2018-02-09T05:15:02.501Z,45.45
2018-02-09T05:16:08.578Z,50.15
2018-02-09T05:17:14.945Z,48.65
2018-02-09T05:18:21.112Z,46.63
2018-02-09T05:19:27.317Z,47.03
2018-02-09T05:20:33.513Z,47.65
2018-02-09T05:21:39.727Z,49.53
2018-02-09T05:22:45.894Z,48.95
2018-02-09T05:23:51.736Z,48.10
2018-02-09T05:24:58.397Z,49.60
2018-02-09T05:26:05.419Z,49.08
2018-02-09T05:27:11.555Z,47.30
2018-02-09T05:28:17.770Z,49.15
2018-02-09T05:29:23.883Z,49.22
2018-02-09T05:30:30.225Z,50.25
2018-02-09T05:31:36.450Z,49.63
2018-02-09T05:32:42.642Z,51.60
2018-02-09T05:33:48.829Z,48.92
2018-02-09T05:34:55.076Z,46.92
2018-02-09T05:36:01.293Z,49.08
2018-02-09T05:37:07.530Z,50.22
2018-02-09T05:38:13.669Z,51.40
2018-02-09T05:39:20.490Z,48.95
2018-02-09T05:40:26.694Z,47.92
2018-02-09T05:41:32.850Z,49.42
2018-02-09T05:42:39.048Z,51.10
2018-02-09T05:43:45.220Z,48.87
2018-02-09T05:44:51.417Z,47.97
2018-02-09T05:45:57.611Z,50.20
2018-02-09T05:47:03.803Z,50.38
2018-02-09T05:48:09.980Z,48.05
2018-02-09T05:49:16.214Z,51.08
2018-02-09T05:50:22.455Z,49.38
2018-02-09T05:51:28.681Z,50.45
2018-02-09T05:52:34.829Z,52.25
2018-02-09T05:53:41.042Z,48.60
2018-02-09T05:54:47.270Z,50.78
2018-02-09T05:55:53.466Z,49.95
2018-02-09T05:56:59.654Z,50.33
2018-02-09T05:58:05.795Z,50.20
2018-02-09T05:59:11.980Z,54.03
2018-02-09T06:00:17.944Z,50.22
2018-02-09T06:01:30.025Z,48.80
2018-02-09T06:02:36.340Z,47.92
2018-02-09T06:03:42.550Z,50.45
2018-02-09T06:04:48.720Z,49.53
2018-02-09T06:05:55.194Z,48.03
2018-02-09T06:07:01.351Z,51.47
2018-02-09T06:08:07.557Z,49.25
2018-02-09T06:09:13.421Z,51.80
2018-02-09T06:10:19.553Z,51.33
2018-02-09T06:11:25.749Z,51.42
2018-02-09T06:12:31.926Z,50.38
2018-02-09T06:13:38.088Z,51.80
2018-02-09T06:14:44.456Z,51.70
2018-02-09T06:15:50.688Z,49.50
2018-02-09T06:16:56.833Z,50.30
2018-02-09T06:18:02.980Z,52.08
2018-02-09T06:19:09.160Z,50.17
2018-02-09T06:20:15.345Z,49.65
2018-02-09T06:21:21.568Z,50.35
2018-02-09T06:22:27.814Z,51.55
2018-02-09T06:23:33.932Z,53.20
2018-02-09T06:24:40.084Z,51.40
2018-02-09T06:25:46.240Z,52.60
2018-02-09T06:26:52.385Z,51.78
2018-02-09T06:27:58.572Z,51.88
2018-02-09T06:29:04.740Z,52.60
2018-02-09T06:30:10.956Z,50.97
2018-02-09T06:31:17.104Z,50.95
2018-02-09T06:32:24.237Z,51.20
2018-02-09T06:33:30.444Z,52.22
2018-02-09T06:34:36.580Z,48.80
2018-02-09T06:35:42.781Z,52.53
2018-02-09T06:36:51.730Z,51.30
2018-02-09T06:37:57.961Z,50.65
2018-02-09T06:39:03.741Z,52.85
2018-02-09T06:40:09.733Z,51.17
2018-02-09T06:41:15.939Z,50.05
2018-02-09T06:42:22.209Z,51.30
2018-02-09T06:43:29.232Z,49.88
2018-02-09T06:44:35.588Z,49.97
2018-02-09T06:45:42.004Z,52.62
2018-02-09T06:46:48.172Z,51.25
2018-02-09T06:47:54.370Z,50.88
2018-02-09T06:49:00.512Z,49.40
2018-02-09T06:50:06.703Z,50.97
2018-02-09T06:51:12.768Z,51.53
2018-02-09T06:52:18.919Z,52.90
2018-02-09T06:53:25.153Z,50.15
2018-02-09T06:54:31.317Z,49.72
2018-02-09T06:55:37.564Z,53.30
2018-02-09T06:56:43.773Z,49.00
2018-02-09T06:57:52.941Z,50.33
2018-02-09T06:58:59.162Z,54.17
2018-02-09T07:00:04.515Z,50.35
2018-02-09T07:01:10.452Z,50.90
2018-02-09T07:02:16.601Z,52.38
2018-02-09T07:03:22.720Z,50.08
2018-02-09T07:04:28.896Z,53.17
2018-02-09T07:05:35.113Z,52.05
2018-02-09T07:06:41.303Z,51.25
2018-02-09T07:07:47.617Z,51.30
2018-02-09T07:08:53.825Z,50.55
2018-02-09T07:10:00.010Z,52.03
2018-02-09T07:11:06.318Z,51.47
2018-02-09T07:12:12.130Z,53.95
2018-02-09T07:13:18.314Z,52.80
2018-02-09T07:14:24.511Z,53.05
2018-02-09T07:15:30.827Z,55.83
2018-02-09T07:16:37.064Z,51.63
2018-02-09T07:17:43.324Z,56.10
2018-02-09T07:18:49.508Z,53.72
2018-02-09T07:19:55.356Z,51.65
2018-02-09T07:21:01.532Z,51.33
2018-02-09T07:22:07.746Z,53.90
2018-02-09T07:23:13.934Z,54.08
2018-02-09T07:24:20.142Z,53.75
2018-02-09T07:25:26.304Z,54.10
2018-02-09T07:26:32.506Z,53.65
2018-02-09T07:27:38.742Z,55.65
2018-02-09T07:28:45.274Z,54.40
2018-02-09T07:29:51.461Z,55.30
2018-02-09T07:30:57.656Z,53.75
2018-02-09T07:32:03.801Z,55.25
2018-02-09T07:33:10.028Z,53.05
2018-02-09T07:34:16.203Z,51.88
2018-02-09T07:35:22.421Z,55.05
2018-02-09T07:36:29.235Z,54.58
2018-02-09T07:37:35.443Z,55.70
2018-02-09T07:38:41.623Z,55.70
2018-02-09T07:39:47.853Z,53.97
2018-02-09T07:40:54.025Z,53.72
2018-02-09T07:42:00.233Z,55.00
2018-02-09T07:43:06.438Z,54.78
2018-02-09T07:44:12.639Z,55.22
2018-02-09T07:45:18.521Z,56.33
2018-02-09T07:46:24.734Z,55.65
2018-02-09T07:47:30.928Z,56.60
2018-02-09T07:48:37.102Z,53.85
2018-02-09T07:49:43.055Z,58.13
2018-02-09T07:50:49.264Z,58.55
2018-02-09T07:51:55.460Z,52.80
2018-02-09T07:53:01.633Z,54.78
2018-02-09T07:54:07.895Z,59.13
2018-02-09T07:55:14.092Z,58.33
2018-02-09T07:56:20.316Z,58.67
2018-02-09T07:57:26.376Z,59.25
2018-02-09T07:58:32.613Z,56.70
2018-02-09T07:59:38.828Z,59.17
2018-02-09T08:00:44.998Z,59.72
2018-02-09T08:01:51.172Z,62.15
2018-02-09T08:02:57.315Z,61.45
2018-02-09T08:04:03.532Z,58.00
2018-02-09T08:05:09.743Z,60.80
2018-02-09T08:06:15.916Z,61.92
2018-02-09T08:07:22.122Z,64.93
2018-02-09T08:08:28.359Z,63.17
2018-02-09T08:09:34.560Z,63.53
2018-02-09T08:10:40.805Z,66.00
2018-02-09T08:11:47.556Z,62.70
2018-02-09T08:12:53.731Z,62.92
2018-02-09T08:13:59.983Z,63.00
2018-02-09T08:15:06.157Z,61.50
2018-02-09T08:16:12.371Z,62.42
2018-02-09T08:17:18.576Z,64.47
2018-02-09T08:18:24.492Z,64.03
2018-02-09T08:19:30.643Z,61.25
2018-02-09T08:20:36.810Z,67.10
2018-02-09T08:21:43.074Z,61.75
2018-02-09T08:22:49.296Z,63.97
2018-02-09T08:23:55.490Z,63.25
2018-02-09T08:25:01.717Z,65.50
2018-02-09T08:26:07.965Z,61.70
2018-02-09T08:27:14.202Z,64.40
2018-02-09T08:28:20.409Z,65.57
2018-02-09T08:29:31.787Z,64.55
2018-02-09T08:30:38.017Z,64.78
2018-02-09T08:31:44.468Z,64.75
2018-02-09T08:32:50.694Z,62.08
2018-02-09T08:33:56.927Z,64.07
2018-02-09T08:35:03.093Z,63.53
2018-02-09T08:36:09.331Z,65.82
2018-02-09T08:37:15.500Z,67.00
2018-02-09T08:38:21.694Z,62.30
2018-02-09T08:39:28.009Z,65.72
2018-02-09T08:40:34.237Z,66.80
2018-02-09T08:41:40.440Z,67.45
2018-02-09T08:42:46.689Z,67.15
2018-02-09T08:43:52.923Z,68.53
2018-02-09T08:45:02.194Z,71.40
2018-02-09T08:46:08.378Z,70.53
2018-02-09T08:47:14.607Z,69.87
2018-02-09T08:48:21.001Z,69.68
2018-02-09T08:49:27.272Z,74.10
2018-02-09T08:50:33.480Z,65.93
2018-02-09T08:51:39.736Z,71.07
2018-02-09T08:52:45.969Z,67.68
2018-02-09T08:53:52.248Z,67.12
2018-02-09T08:54:58.467Z,64.18
2018-02-09T08:56:04.724Z,67.03
2018-02-09T08:57:10.966Z,63.35
2018-02-09T08:58:17.213Z,64.05
2018-02-09T08:59:23.445Z,66.00
2018-02-09T09:00:29.833Z,65.05
2018-02-09T09:01:36.050Z,67.90
2018-02-09T09:02:42.254Z,65.93
2018-02-09T09:03:48.898Z,68.93
2018-02-09T09:04:55.137Z,64.25
2018-02-09T09:06:01.340Z,67.95
2018-02-09T09:07:08.451Z,68.40
2018-02-09T09:08:14.743Z,63.00
2018-02-09T09:09:20.923Z,64.10
2018-02-09T09:10:27.234Z,66.18
2018-02-09T09:11:33.427Z,64.18
2018-02-09T09:12:39.601Z,66.50
2018-02-09T09:13:45.849Z,65.47
2018-02-09T09:14:52.070Z,64.87
2018-02-09T09:15:58.254Z,61.90
2018-02-09T09:17:04.514Z,61.03
2018-02-09T09:18:10.703Z,66.40
2018-02-09T09:19:16.894Z,64.37
2018-02-09T09:20:23.032Z,62.58
2018-02-09T09:21:29.275Z,65.95
2018-02-09T09:22:35.440Z,65.22
2018-02-09T09:23:41.637Z,65.53
2018-02-09T09:24:47.868Z,67.20
2018-02-09T09:25:54.064Z,62.55
2018-02-09T09:27:00.287Z,67.43
2018-02-09T09:28:09.523Z,64.37
2018-02-09T09:29:15.725Z,64.82
2018-02-09T09:30:21.906Z,68.00
2018-02-09T09:31:28.070Z,65.78
2018-02-09T09:32:34.260Z,65.10
2018-02-09T09:33:40.478Z,66.55
2018-02-09T09:34:46.707Z,65.30
2018-02-09T09:35:52.938Z,68.53
2018-02-09T09:36:59.214Z,69.72
2018-02-09T09:38:05.468Z,64.75
2018-02-09T09:39:11.649Z,64.65
2018-02-09T09:40:17.898Z,66.40
2018-02-09T09:41:25.532Z,59.65
2018-02-09T09:42:31.754Z,63.87
2018-02-09T09:43:38.000Z,66.05
2018-02-09T09:44:44.273Z,62.83
2018-02-09T09:45:50.493Z,59.15
2018-02-09T09:46:56.704Z,56.92
2018-02-09T09:48:02.899Z,55.33
2018-02-09T09:49:08.809Z,54.03
2018-02-09T09:50:14.992Z,56.03
2018-02-09T09:51:21.480Z,55.25
2018-02-09T09:52:27.669Z,55.20
2018-02-09T09:53:33.902Z,56.15
2018-02-09T09:54:40.036Z,52.80
2018-02-09T09:55:46.323Z,53.50
2018-02-09T09:56:52.529Z,55.08
2018-02-09T09:57:58.700Z,54.10
2018-02-09T09:59:04.894Z,56.90
2018-02-09T10:00:11.029Z,56.78
2018-02-09T10:01:36.772Z,54.60
2018-02-09T10:02:42.980Z,58.15
2018-02-09T10:03:49.153Z,54.60
2018-02-09T10:04:55.256Z,56.37
2018-02-09T10:06:01.445Z,58.38
2018-02-09T10:07:07.652Z,56.53
2018-02-09T10:08:13.654Z,59.53
2018-02-09T10:09:19.830Z,58.45
2018-02-09T10:10:26.045Z,60.20
2018-02-09T10:11:32.253Z,59.33
2018-02-09T10:12:38.510Z,57.78
2018-02-09T10:13:44.738Z,60.50
2018-02-09T10:14:50.923Z,59.55
2018-02-09T10:15:57.196Z,62.25
2018-02-09T10:17:03.367Z,63.55
2018-02-09T10:18:09.646Z,62.72
2018-02-09T10:19:15.695Z,60.42
2018-02-09T10:20:21.884Z,65.20
2018-02-09T10:21:28.772Z,64.40
2018-02-09T10:22:34.588Z,60.50
2018-02-09T10:23:40.905Z,65.07
2018-02-09T10:24:47.074Z,60.58
2018-02-09T10:25:53.247Z,61.13
2018-02-09T10:26:59.440Z,62.20
2018-02-09T10:28:09.955Z,60.05
2018-02-09T10:29:16.211Z,63.55
2018-02-09T10:30:22.390Z,61.35
2018-02-09T10:31:30.794Z,61.10
2018-02-09T10:32:36.990Z,64.72
2018-02-09T10:33:43.214Z,62.15
2018-02-09T10:34:49.381Z,60.75
2018-02-09T10:35:55.561Z,62.65
2018-02-09T10:37:01.751Z,62.15
2018-02-09T10:38:08.011Z,63.45
2018-02-09T10:39:14.273Z,61.03
2018-02-09T10:40:20.644Z,64.20
2018-02-09T10:41:26.854Z,62.38
2018-02-09T10:42:33.047Z,63.97
2018-02-09T10:43:39.226Z,63.15
2018-02-09T10:44:45.396Z,62.13
2018-02-09T10:45:51.280Z,58.33
2018-02-09T10:46:57.434Z,61.15
2018-02-09T10:48:03.584Z,61.85
2018-02-09T10:49:09.743Z,61.33
2018-02-09T10:50:15.867Z,62.08
2018-02-09T10:51:22.007Z,64.28
2018-02-09T10:52:28.194Z,61.10
2018-02-09T10:53:34.380Z,62.72
2018-02-09T10:54:40.571Z,65.47
2018-02-09T10:55:46.756Z,66.00
2018-02-09T10:56:52.983Z,65.62
2018-02-09T10:57:59.158Z,64.43
2018-02-09T10:59:05.444Z,65.05
2018-02-09T11:00:11.653Z,66.45
2018-02-09T11:01:23.197Z,66.10
2018-02-09T11:02:29.441Z,68.72
2018-02-09T11:03:35.597Z,64.40
2018-02-09T11:04:41.783Z,66.03
2018-02-09T11:05:48.017Z,64.40
2018-02-09T11:06:54.262Z,64.22
2018-02-09T11:08:00.428Z,65.60
2018-02-09T11:09:06.294Z,65.55
2018-02-09T11:10:17.723Z,64.55
2018-02-09T11:11:23.677Z,63.72
2018-02-09T11:12:35.323Z,63.70
2018-02-09T11:13:41.511Z,63.90
2018-02-09T11:14:47.773Z,63.55
2018-02-09T11:15:59.238Z,64.47
2018-02-09T11:17:05.415Z,62.17
2018-02-09T11:18:11.593Z,63.72
2018-02-09T11:19:17.792Z,64.47
2018-02-09T11:20:23.623Z,63.63
2018-02-09T11:21:29.827Z,63.83
2018-02-09T11:22:36.779Z,65.68
2018-02-09T11:23:43.004Z,64.57
2018-02-09T11:24:49.251Z,62.28
2018-02-09T11:25:55.473Z,65.85
2018-02-09T11:27:01.890Z,64.72
2018-02-09T11:28:08.204Z,68.95
2018-02-09T11:29:14.811Z,65.90
2018-02-09T11:30:21.334Z,67.40
2018-02-09T11:31:27.511Z,65.00
2018-02-09T11:32:33.880Z,62.45
2018-02-09T11:33:40.276Z,63.80
2018-02-09T11:34:46.497Z,62.17
2018-02-09T11:35:52.684Z,64.57
2018-02-09T11:36:58.827Z,63.80
2018-02-09T11:38:05.008Z,64.97
2018-02-09T11:39:11.223Z,65.95
2018-02-09T11:40:17.433Z,65.18
2018-02-09T11:41:23.560Z,62.75
2018-02-09T11:42:29.802Z,66.55
2018-02-09T11:43:35.978Z,59.72
2018-02-09T11:44:42.084Z,64.30
2018-02-09T11:45:48.303Z,62.42
2018-02-09T11:46:54.485Z,60.50
2018-02-09T11:48:00.916Z,62.50
2018-02-09T11:49:07.106Z,62.80
2018-02-09T11:50:13.352Z,65.65
2018-02-09T11:51:19.544Z,62.28
2018-02-09T11:52:25.749Z,65.30
2018-02-09T11:53:31.929Z,61.55
2018-02-09T11:54:38.068Z,62.70
2018-02-09T11:55:44.280Z,61.60
2018-02-09T11:56:50.487Z,63.40
2018-02-09T11:57:57.136Z,63.08
2018-02-09T11:59:03.684Z,62.67
2018-02-09T12:00:09.610Z,63.03
2018-02-09T12:01:15.497Z,61.67
2018-02-09T12:02:21.769Z,61.97
2018-02-09T12:03:27.897Z,62.78
2018-02-09T12:04:34.115Z,59.17
2018-02-09T12:05:40.467Z,63.87
2018-02-09T12:06:46.655Z,61.47
2018-02-09T12:07:56.907Z,57.33
2018-02-09T12:09:02.872Z,57.00
2018-02-09T12:10:08.120Z,62.62
2018-02-09T12:11:14.269Z,59.72
2018-02-09T12:12:20.438Z,59.20
2018-02-09T12:13:26.638Z,63.65
2018-02-09T12:14:32.839Z,59.17
2018-02-09T12:15:39.007Z,62.25
2018-02-09T12:16:45.170Z,60.63
2018-02-09T12:17:51.329Z,60.15
2018-02-09T12:18:57.236Z,58.67
2018-02-09T12:20:03.383Z,60.67
2018-02-09T12:21:09.538Z,59.53
2018-02-09T12:22:15.704Z,62.83
2018-02-09T12:23:21.870Z,58.92
2018-02-09T12:24:28.064Z,58.00
2018-02-09T12:25:34.123Z,62.78
2018-02-09T12:26:40.047Z,60.85
2018-02-09T12:27:45.974Z,58.92
2018-02-09T12:28:52.126Z,59.78
2018-02-09T12:29:58.335Z,59.83
2018-02-09T12:31:04.513Z,60.63
2018-02-09T12:32:10.696Z,60.53
2018-02-09T12:33:16.978Z,60.97
2018-02-09T12:34:23.203Z,59.97
2018-02-09T12:35:29.413Z,57.83
2018-02-09T12:36:35.576Z,58.70
2018-02-09T12:37:41.895Z,58.40
2018-02-09T12:38:48.117Z,56.50
2018-02-09T12:39:54.332Z,55.78
2018-02-09T12:41:00.527Z,55.70
2018-02-09T12:42:06.448Z,57.15
2018-02-09T12:43:12.692Z,57.05
2018-02-09T12:44:18.866Z,56.35
2018-02-09T12:45:25.148Z,53.10
2018-02-09T12:46:31.390Z,56.08
2018-02-09T12:47:37.583Z,57.30
2018-02-09T12:48:43.776Z,52.80
2018-02-09T12:49:50.160Z,55.85
2018-02-09T12:50:56.400Z,55.25
2018-02-09T12:52:02.588Z,57.50
2018-02-09T12:53:08.771Z,55.10
2018-02-09T12:54:14.955Z,55.35
2018-02-09T12:55:21.161Z,55.33
2018-02-09T12:56:27.376Z,57.62
2018-02-09T12:57:33.583Z,52.83
2018-02-09T12:58:39.819Z,57.95
2018-02-09T12:59:46.063Z,56.50
2018-02-09T13:00:52.306Z,51.67
2018-02-09T13:01:58.519Z,51.80
2018-02-09T13:03:04.763Z,52.08
2018-02-09T13:04:10.936Z,54.00
2018-02-09T13:05:17.147Z,53.00
2018-02-09T13:06:23.393Z,53.42
2018-02-09T13:07:29.606Z,51.05
2018-02-09T13:08:35.801Z,54.20
2018-02-09T13:09:42.046Z,52.03
2018-02-09T13:10:48.292Z,52.62
2018-02-09T13:11:54.719Z,53.75
2018-02-09T13:13:05.723Z,53.22
2018-02-09T13:14:10.949Z,53.70
2018-02-09T13:15:16.900Z,53.33
2018-02-09T13:16:22.857Z,53.30
2018-02-09T13:17:29.170Z,51.03
2018-02-09T13:18:46.212Z,50.78
2018-02-09T13:19:52.420Z,51.67
2018-02-09T13:20:58.656Z,51.88
2018-02-09T13:22:04.965Z,50.70
2018-02-09T13:23:22.038Z,50.60
2018-02-09T13:24:28.169Z,48.80
2018-02-09T13:25:34.359Z,50.95
2018-02-09T13:26:40.590Z,48.80
2018-02-09T13:27:46.844Z,48.83
2018-02-09T13:28:59.892Z,48.60
2018-02-09T13:30:07.033Z,48.92
2018-02-09T13:31:13.205Z,49.08
2018-02-09T13:32:30.360Z,49.10
2018-02-09T13:33:36.292Z,46.63
2018-02-09T13:34:42.485Z,48.53
2018-02-09T13:35:48.754Z,47.15
2018-02-09T13:38:44.437Z,46.55
2018-02-09T13:39:50.653Z,47.53
2018-02-09T13:40:56.884Z,48.05
2018-02-09T13:42:02.843Z,48.95
2018-02-09T13:43:09.044Z,47.60
2018-02-09T13:44:15.557Z,47.70
2018-02-09T13:45:21.756Z,46.50
2018-02-09T13:46:27.964Z,45.53
2018-02-09T13:47:34.160Z,47.22
2018-02-09T13:48:40.391Z,45.90
2018-02-09T13:49:46.625Z,45.05
2018-02-09T13:50:52.907Z,48.22
2018-02-09T13:51:59.112Z,48.22
2018-02-09T13:53:05.006Z,49.08
2018-02-09T13:54:10.932Z,49.55
2018-02-09T13:55:17.124Z,49.35
2018-02-09T13:56:23.370Z,51.58
2018-02-09T13:57:29.675Z,52.25
2018-02-09T13:58:35.933Z,53.63
2018-02-09T13:59:42.141Z,55.22
2018-02-09T14:00:48.393Z,52.00
2018-02-09T14:01:54.659Z,51.37
2018-02-09T14:03:01.895Z,54.42
2018-02-09T14:04:08.198Z,54.83
2018-02-09T14:05:14.376Z,52.65
2018-02-09T14:06:20.414Z,51.37
2018-02-09T14:07:26.568Z,54.65
2018-02-09T14:08:32.838Z,54.35
2018-02-09T14:09:39.065Z,55.12
2018-02-09T14:10:45.462Z,54.75
2018-02-09T14:11:51.698Z,55.95
2018-02-09T14:12:58.335Z,55.35
2018-02-09T14:14:04.562Z,52.17
2018-02-09T14:15:10.851Z,53.65
2018-02-09T14:16:17.169Z,52.75
2018-02-09T14:17:23.467Z,53.58